sensor_id;sensor_type;location;lat;lon;timestamp;P1;durP1;ratioP1;P2;durP2;ratioP2
75887;SDS011;64562;55.662;37.300;2022-12-16T00:02:48;3.17;;;2.33;;
75887;SDS011;64562;55.662;37.300;2022-12-16T00:05:14;3.03;;;2.03;;
75887;SDS011;64562;55.662;37.300;2022-12-16T00:07:41;3.10;;;2.20;;
75887;SDS011;64562;55.662;37.300;2022-12-16T00:10:08;3.20;;;2.20;;
75887;SDS011;64562;55.662;37.300;2022-12-16T00:12:34;3.45;;;2.17;;
75887;SDS011;64562;55.662;37.300;2022-12-16T00:15:02;4.15;;;2.20;;
75887;SDS011;64562;55.662;37.300;2022-12-16T00:17:29;3.80;;;2.05;;
75887;SDS011;64562;55.662;37.300;2022-12-16T00:19:56;3.42;;;2.28;;
75887;SDS011;64562;55.662;37.300;2022-12-16T00:22:22;2.88;;;1.90;;
75887;SDS011;64562;55.662;37.300;2022-12-16T00:24:49;3.10;;;2.03;;
75887;SDS011;64562;55.662;37.300;2022-12-16T00:27:16;2.85;;;1.80;;
75887;SDS011;64562;55.662;37.300;2022-12-16T00:29:43;4.15;;;2.15;;
75887;SDS011;64562;55.662;37.300;2022-12-16T00:32:11;4.05;;;2.50;;
75887;SDS011;64562;55.662;37.300;2022-12-16T00:34:37;2.53;;;1.95;;
75887;SDS011;64562;55.662;37.300;2022-12-16T00:37:04;3.67;;;2.30;;
75887;SDS011;64562;55.662;37.300;2022-12-16T00:39:30;4.20;;;2.15;;
75887;SDS011;64562;55.662;37.300;2022-12-16T00:41:57;3.58;;;1.90;;
75887;SDS011;64562;55.662;37.300;2022-12-16T00:44:24;2.70;;;2.00;;
75887;SDS011;64562;55.662;37.300;2022-12-16T00:46:50;3.75;;;2.17;;
75887;SDS011;64562;55.662;37.300;2022-12-16T00:49:18;2.85;;;1.92;;
75887;SDS011;64562;55.662;37.300;2022-12-16T00:51:45;3.08;;;1.80;;
75887;SDS011;64562;55.662;37.300;2022-12-16T00:54:11;3.75;;;2.25;;
75887;SDS011;64562;55.662;37.300;2022-12-16T00:56:38;3.05;;;2.00;;
75887;SDS011;64562;55.662;37.300;2022-12-16T00:59:05;2.90;;;2.00;;
75887;SDS011;64562;55.662;37.300;2022-12-16T01:01:32;3.08;;;1.77;;
75887;SDS011;64562;55.662;37.300;2022-12-16T01:03:58;2.72;;;1.83;;
75887;SDS011;64562;55.662;37.300;2022-12-16T01:06:26;2.97;;;1.85;;
75887;SDS011;64562;55.662;37.300;2022-12-16T01:08:53;2.78;;;1.63;;
75887;SDS011;64562;55.662;37.300;2022-12-16T01:11:20;2.78;;;1.70;;
75887;SDS011;64562;55.662;37.300;2022-12-16T01:13:48;2.45;;;1.80;;
75887;SDS011;64562;55.662;37.300;2022-12-16T01:16:15;1.95;;;1.55;;
75887;SDS011;64562;55.662;37.300;2022-12-16T01:18:42;3.97;;;2.17;;
75887;SDS011;64562;55.662;37.300;2022-12-16T01:21:09;2.60;;;1.90;;
75887;SDS011;64562;55.662;37.300;2022-12-16T01:23:38;3.13;;;1.60;;
75887;SDS011;64562;55.662;37.300;2022-12-16T01:26:05;2.80;;;1.98;;
75887;SDS011;64562;55.662;37.300;2022-12-16T01:28:31;2.00;;;1.60;;
75887;SDS011;64562;55.662;37.300;2022-12-16T01:30:58;2.53;;;1.92;;
75887;SDS011;64562;55.662;37.300;2022-12-16T01:33:27;2.85;;;1.92;;
75887;SDS011;64562;55.662;37.300;2022-12-16T01:35:57;3.22;;;1.83;;
75887;SDS011;64562;55.662;37.300;2022-12-16T01:38:24;2.88;;;1.70;;
75887;SDS011;64562;55.662;37.300;2022-12-16T01:40:52;2.90;;;1.73;;
75887;SDS011;64562;55.662;37.300;2022-12-16T01:43:19;2.65;;;1.85;;
75887;SDS011;64562;55.662;37.300;2022-12-16T01:45:47;2.75;;;1.77;;
75887;SDS011;64562;55.662;37.300;2022-12-16T01:48:17;3.22;;;2.08;;
75887;SDS011;64562;55.662;37.300;2022-12-16T01:50:45;2.65;;;1.80;;
75887;SDS011;64562;55.662;37.300;2022-12-16T01:53:12;2.88;;;1.83;;
75887;SDS011;64562;55.662;37.300;2022-12-16T01:55:40;2.90;;;1.83;;
75887;SDS011;64562;55.662;37.300;2022-12-16T01:58:09;2.53;;;1.90;;
75887;SDS011;64562;55.662;37.300;2022-12-16T02:00:37;2.13;;;1.60;;
75887;SDS011;64562;55.662;37.300;2022-12-16T02:03:05;3.22;;;1.95;;
75887;SDS011;64562;55.662;37.300;2022-12-16T02:05:32;3.63;;;1.80;;
75887;SDS011;64562;55.662;37.300;2022-12-16T02:08:00;2.58;;;1.80;;
75887;SDS011;64562;55.662;37.300;2022-12-16T02:10:30;2.60;;;1.80;;
75887;SDS011;64562;55.662;37.300;2022-12-16T02:13:00;2.90;;;1.90;;
75887;SDS011;64562;55.662;37.300;2022-12-16T02:15:33;2.33;;;1.58;;
75887;SDS011;64562;55.662;37.300;2022-12-16T02:18:03;2.40;;;1.67;;
75887;SDS011;64562;55.662;37.300;2022-12-16T02:23:33;2.40;;;1.88;;
75887;SDS011;64562;55.662;37.300;2022-12-16T02:26:21;2.30;;;1.52;;
75887;SDS011;64562;55.662;37.300;2022-12-16T02:28:59;3.45;;;1.95;;
75887;SDS011;64562;55.662;37.300;2022-12-16T02:31:34;2.30;;;1.77;;
75887;SDS011;64562;55.662;37.300;2022-12-16T02:34:08;2.35;;;1.70;;
75887;SDS011;64562;55.662;37.300;2022-12-16T02:36:45;2.67;;;1.80;;
75887;SDS011;64562;55.662;37.300;2022-12-16T02:39:16;2.53;;;1.65;;
75887;SDS011;64562;55.662;37.300;2022-12-16T02:41:46;1.85;;;1.60;;
75887;SDS011;64562;55.662;37.300;2022-12-16T02:44:14;2.35;;;1.70;;
75887;SDS011;64562;55.662;37.300;2022-12-16T02:46:50;2.58;;;1.60;;
75887;SDS011;64562;55.662;37.300;2022-12-16T02:52:03;2.22;;;1.45;;
75887;SDS011;64562;55.662;37.300;2022-12-16T02:54:29;2.85;;;1.98;;
75887;SDS011;64562;55.662;37.300;2022-12-16T02:56:57;2.53;;;1.50;;
75887;SDS011;64562;55.662;37.300;2022-12-16T02:59:26;2.50;;;1.70;;
75887;SDS011;64562;55.662;37.300;2022-12-16T03:01:56;2.28;;;1.70;;
75887;SDS011;64562;55.662;37.300;2022-12-16T03:06:51;1.92;;;1.52;;
75887;SDS011;64562;55.662;37.300;2022-12-16T03:09:18;2.50;;;1.75;;
75887;SDS011;64562;55.662;37.300;2022-12-16T03:11:46;2.08;;;1.65;;
75887;SDS011;64562;55.662;37.300;2022-12-16T03:14:14;2.15;;;1.60;;
75887;SDS011;64562;55.662;37.300;2022-12-16T03:16:42;2.78;;;1.98;;
75887;SDS011;64562;55.662;37.300;2022-12-16T03:19:10;4.20;;;1.50;;
75887;SDS011;64562;55.662;37.300;2022-12-16T03:21:42;2.10;;;1.63;;
75887;SDS011;64562;55.662;37.300;2022-12-16T03:24:10;2.25;;;1.45;;
75887;SDS011;64562;55.662;37.300;2022-12-16T03:26:39;2.05;;;1.60;;
75887;SDS011;64562;55.662;37.300;2022-12-16T03:29:09;1.98;;;1.70;;
75887;SDS011;64562;55.662;37.300;2022-12-16T03:31:37;2.33;;;1.80;;
75887;SDS011;64562;55.662;37.300;2022-12-16T03:34:06;3.10;;;2.00;;
75887;SDS011;64562;55.662;37.300;2022-12-16T03:36:36;2.47;;;1.80;;
75887;SDS011;64562;55.662;37.300;2022-12-16T03:39:03;2.38;;;1.50;;
75887;SDS011;64562;55.662;37.300;2022-12-16T03:41:31;3.35;;;1.60;;
75887;SDS011;64562;55.662;37.300;2022-12-16T03:43:58;2.83;;;1.92;;
75887;SDS011;64562;55.662;37.300;2022-12-16T03:46:25;6.10;;;2.08;;
75887;SDS011;64562;55.662;37.300;2022-12-16T03:48:51;3.53;;;1.70;;
75887;SDS011;64562;55.662;37.300;2022-12-16T03:51:19;2.10;;;1.80;;
75887;SDS011;64562;55.662;37.300;2022-12-16T03:53:47;2.75;;;1.83;;
75887;SDS011;64562;55.662;37.300;2022-12-16T03:56:13;5.28;;;1.85;;
75887;SDS011;64562;55.662;37.300;2022-12-16T03:58:40;6.80;;;2.10;;
75887;SDS011;64562;55.662;37.300;2022-12-16T04:01:07;4.07;;;2.00;;
75887;SDS011;64562;55.662;37.300;2022-12-16T04:03:34;2.60;;;1.80;;
75887;SDS011;64562;55.662;37.300;2022-12-16T04:06:01;2.83;;;1.67;;
75887;SDS011;64562;55.662;37.300;2022-12-16T04:08:28;2.53;;;1.65;;
75887;SDS011;64562;55.662;37.300;2022-12-16T04:10:56;3.28;;;1.77;;
75887;SDS011;64562;55.662;37.300;2022-12-16T04:13:40;3.45;;;1.77;;
75887;SDS011;64562;55.662;37.300;2022-12-16T04:16:24;2.60;;;1.75;;
75887;SDS011;64562;55.662;37.300;2022-12-16T04:19:08;2.55;;;1.80;;
75887;SDS011;64562;55.662;37.300;2022-12-16T04:21:54;5.03;;;2.03;;
75887;SDS011;64562;55.662;37.300;2022-12-16T04:24:38;2.38;;;1.60;;
75887;SDS011;64562;55.662;37.300;2022-12-16T04:27:06;2.78;;;1.60;;
75887;SDS011;64562;55.662;37.300;2022-12-16T04:29:53;2.53;;;1.90;;
75887;SDS011;64562;55.662;37.300;2022-12-16T04:32:39;2.83;;;1.70;;
75887;SDS011;64562;55.662;37.300;2022-12-16T04:35:24;4.20;;;1.80;;
75887;SDS011;64562;55.662;37.300;2022-12-16T04:38:08;2.60;;;2.00;;
75887;SDS011;64562;55.662;37.300;2022-12-16T04:40:51;2.75;;;1.75;;
75887;SDS011;64562;55.662;37.300;2022-12-16T04:43:37;3.00;;;2.10;;
75887;SDS011;64562;55.662;37.300;2022-12-16T04:46:21;3.78;;;1.63;;
75887;SDS011;64562;55.662;37.300;2022-12-16T04:49:05;3.10;;;1.80;;
75887;SDS011;64562;55.662;37.300;2022-12-16T04:51:49;2.58;;;1.70;;
75887;SDS011;64562;55.662;37.300;2022-12-16T04:54:33;2.85;;;1.88;;
75887;SDS011;64562;55.662;37.300;2022-12-16T04:57:17;3.30;;;1.70;;
75887;SDS011;64562;55.662;37.300;2022-12-16T05:00:03;3.65;;;1.65;;
75887;SDS011;64562;55.662;37.300;2022-12-16T05:02:47;2.05;;;1.63;;
75887;SDS011;64562;55.662;37.300;2022-12-16T05:05:31;2.55;;;1.75;;
75887;SDS011;64562;55.662;37.300;2022-12-16T05:08:15;3.15;;;1.70;;
75887;SDS011;64562;55.662;37.300;2022-12-16T05:10:55;2.20;;;1.90;;
75887;SDS011;64562;55.662;37.300;2022-12-16T05:13:40;2.85;;;1.80;;
75887;SDS011;64562;55.662;37.300;2022-12-16T05:16:25;2.58;;;1.58;;
75887;SDS011;64562;55.662;37.300;2022-12-16T05:19:09;2.60;;;1.67;;
75887;SDS011;64562;55.662;37.300;2022-12-16T05:21:53;1.98;;;1.60;;
75887;SDS011;64562;55.662;37.300;2022-12-16T05:24:37;3.03;;;2.08;;
75887;SDS011;64562;55.662;37.300;2022-12-16T05:27:21;1.88;;;1.50;;
75887;SDS011;64562;55.662;37.300;2022-12-16T05:30:05;3.13;;;1.55;;
75887;SDS011;64562;55.662;37.300;2022-12-16T05:32:51;2.53;;;1.55;;
75887;SDS011;64562;55.662;37.300;2022-12-16T05:35:35;2.20;;;1.80;;
75887;SDS011;64562;55.662;37.300;2022-12-16T05:38:19;2.00;;;1.67;;
75887;SDS011;64562;55.662;37.300;2022-12-16T05:41:11;3.20;;;1.80;;
75887;SDS011;64562;55.662;37.300;2022-12-16T05:43:55;2.50;;;1.80;;
75887;SDS011;64562;55.662;37.300;2022-12-16T05:46:39;4.38;;;1.95;;
75887;SDS011;64562;55.662;37.300;2022-12-16T05:49:25;3.22;;;1.58;;
75887;SDS011;64562;55.662;37.300;2022-12-16T05:52:09;2.75;;;1.80;;
75887;SDS011;64562;55.662;37.300;2022-12-16T05:54:53;3.17;;;1.63;;
75887;SDS011;64562;55.662;37.300;2022-12-16T05:57:37;2.50;;;1.80;;
75887;SDS011;64562;55.662;37.300;2022-12-16T06:00:20;2.65;;;1.80;;
75887;SDS011;64562;55.662;37.300;2022-12-16T06:03:04;2.58;;;1.75;;
75887;SDS011;64562;55.662;37.300;2022-12-16T06:05:50;2.25;;;1.60;;
75887;SDS011;64562;55.662;37.300;2022-12-16T06:08:34;3.47;;;2.10;;
75887;SDS011;64562;55.662;37.300;2022-12-16T06:11:18;2.58;;;1.70;;
75887;SDS011;64562;55.662;37.300;2022-12-16T06:14:04;3.00;;;2.10;;
75887;SDS011;64562;55.662;37.300;2022-12-16T06:16:49;3.22;;;2.00;;
75887;SDS011;64562;55.662;37.300;2022-12-16T06:19:32;3.50;;;2.33;;
75887;SDS011;64562;55.662;37.300;2022-12-16T06:22:18;2.42;;;1.77;;
75887;SDS011;64562;55.662;37.300;2022-12-16T06:25:02;3.78;;;2.10;;
75887;SDS011;64562;55.662;37.300;2022-12-16T06:27:48;4.22;;;2.40;;
75887;SDS011;64562;55.662;37.300;2022-12-16T06:30:32;2.85;;;2.00;;
75887;SDS011;64562;55.662;37.300;2022-12-16T06:33:16;4.45;;;2.45;;
75887;SDS011;64562;55.662;37.300;2022-12-16T06:36:06;3.47;;;1.85;;
75887;SDS011;64562;55.662;37.300;2022-12-16T06:38:51;3.15;;;2.20;;
75887;SDS011;64562;55.662;37.300;2022-12-16T06:41:35;4.65;;;2.17;;
75887;SDS011;64562;55.662;37.300;2022-12-16T06:44:19;2.42;;;1.60;;
75887;SDS011;64562;55.662;37.300;2022-12-16T06:47:03;3.90;;;2.00;;
75887;SDS011;64562;55.662;37.300;2022-12-16T06:49:47;4.38;;;2.13;;
75887;SDS011;64562;55.662;37.300;2022-12-16T06:52:31;5.80;;;2.08;;
75887;SDS011;64562;55.662;37.300;2022-12-16T06:55:28;2.80;;;1.77;;
75887;SDS011;64562;55.662;37.300;2022-12-16T06:58:12;7.10;;;2.63;;
75887;SDS011;64562;55.662;37.300;2022-12-16T07:00:56;7.63;;;3.08;;
75887;SDS011;64562;55.662;37.300;2022-12-16T07:03:40;4.15;;;2.42;;
75887;SDS011;64562;55.662;37.300;2022-12-16T07:06:24;5.25;;;2.58;;
75887;SDS011;64562;55.662;37.300;2022-12-16T07:09:09;6.50;;;2.83;;
75887;SDS011;64562;55.662;37.300;2022-12-16T07:12:09;5.13;;;2.95;;
75887;SDS011;64562;55.662;37.300;2022-12-16T07:14:53;5.57;;;2.90;;
75887;SDS011;64562;55.662;37.300;2022-12-16T07:17:38;3.85;;;2.30;;
75887;SDS011;64562;55.662;37.300;2022-12-16T07:20:22;7.32;;;3.30;;
75887;SDS011;64562;55.662;37.300;2022-12-16T07:23:06;5.88;;;2.90;;
75887;SDS011;64562;55.662;37.300;2022-12-16T07:25:50;4.35;;;2.80;;
75887;SDS011;64562;55.662;37.300;2022-12-16T07:28:34;4.85;;;2.55;;
75887;SDS011;64562;55.662;37.300;2022-12-16T07:31:18;3.47;;;2.35;;
75887;SDS011;64562;55.662;37.300;2022-12-16T07:34:02;5.30;;;2.70;;
75887;SDS011;64562;55.662;37.300;2022-12-16T07:36:43;5.85;;;3.13;;
75887;SDS011;64562;55.662;37.300;2022-12-16T07:39:27;4.68;;;2.80;;
75887;SDS011;64562;55.662;37.300;2022-12-16T07:42:13;4.78;;;2.83;;
75887;SDS011;64562;55.662;37.300;2022-12-16T07:44:59;6.97;;;3.30;;
75887;SDS011;64562;55.662;37.300;2022-12-16T07:47:45;5.57;;;2.72;;
75887;SDS011;64562;55.662;37.300;2022-12-16T07:50:29;4.85;;;2.72;;
75887;SDS011;64562;55.662;37.300;2022-12-16T07:53:13;6.05;;;3.42;;
75887;SDS011;64562;55.662;37.300;2022-12-16T07:55:57;4.00;;;2.58;;
75887;SDS011;64562;55.662;37.300;2022-12-16T07:58:41;4.80;;;2.95;;
75887;SDS011;64562;55.662;37.300;2022-12-16T08:01:26;5.13;;;3.03;;
75887;SDS011;64562;55.662;37.300;2022-12-16T08:04:13;4.85;;;2.88;;
75887;SDS011;64562;55.662;37.300;2022-12-16T08:06:57;6.40;;;3.47;;
75887;SDS011;64562;55.662;37.300;2022-12-16T08:09:41;4.82;;;3.03;;
75887;SDS011;64562;55.662;37.300;2022-12-16T08:12:25;5.38;;;2.92;;
75887;SDS011;64562;55.662;37.300;2022-12-16T08:15:09;3.58;;;2.78;;
75887;SDS011;64562;55.662;37.300;2022-12-16T08:17:54;4.28;;;2.95;;
75887;SDS011;64562;55.662;37.300;2022-12-16T08:20:38;4.65;;;2.95;;
75887;SDS011;64562;55.662;37.300;2022-12-16T08:23:22;4.93;;;3.40;;
75887;SDS011;64562;55.662;37.300;2022-12-16T08:26:06;5.45;;;2.65;;
75887;SDS011;64562;55.662;37.300;2022-12-16T08:28:51;4.65;;;2.90;;
75887;SDS011;64562;55.662;37.300;2022-12-16T08:31:35;4.03;;;2.70;;
75887;SDS011;64562;55.662;37.300;2022-12-16T08:34:20;4.45;;;2.67;;
75887;SDS011;64562;55.662;37.300;2022-12-16T08:37:04;4.95;;;3.00;;
75887;SDS011;64562;55.662;37.300;2022-12-16T08:39:48;4.95;;;3.13;;
75887;SDS011;64562;55.662;37.300;2022-12-16T08:42:32;4.18;;;2.63;;
75887;SDS011;64562;55.662;37.300;2022-12-16T08:45:16;4.55;;;2.92;;
75887;SDS011;64562;55.662;37.300;2022-12-16T08:48:01;3.80;;;2.83;;
75887;SDS011;64562;55.662;37.300;2022-12-16T08:50:46;4.65;;;2.80;;
75887;SDS011;64562;55.662;37.300;2022-12-16T08:53:30;3.83;;;2.67;;
75887;SDS011;64562;55.662;37.300;2022-12-16T08:56:14;5.45;;;3.03;;
75887;SDS011;64562;55.662;37.300;2022-12-16T08:58:58;5.90;;;3.22;;
75887;SDS011;64562;55.662;37.300;2022-12-16T09:01:42;5.05;;;2.92;;
75887;SDS011;64562;55.662;37.300;2022-12-16T09:04:26;4.18;;;2.97;;
75887;SDS011;64562;55.662;37.300;2022-12-16T09:07:11;3.55;;;2.55;;
75887;SDS011;64562;55.662;37.300;2022-12-16T09:09:54;3.70;;;2.45;;
75887;SDS011;64562;55.662;37.300;2022-12-16T09:12:39;4.15;;;2.90;;
75887;SDS011;64562;55.662;37.300;2022-12-16T09:15:22;5.10;;;2.92;;
75887;SDS011;64562;55.662;37.300;2022-12-16T09:18:06;4.50;;;3.00;;
75887;SDS011;64562;55.662;37.300;2022-12-16T09:20:51;4.68;;;2.70;;
75887;SDS011;64562;55.662;37.300;2022-12-16T09:23:35;4.57;;;2.80;;
75887;SDS011;64562;55.662;37.300;2022-12-16T09:26:19;4.22;;;2.60;;
75887;SDS011;64562;55.662;37.300;2022-12-16T09:29:03;4.28;;;2.58;;
75887;SDS011;64562;55.662;37.300;2022-12-16T09:31:47;4.63;;;2.60;;
75887;SDS011;64562;55.662;37.300;2022-12-16T09:34:31;4.20;;;2.80;;
75887;SDS011;64562;55.662;37.300;2022-12-16T09:37:17;3.83;;;2.53;;
75887;SDS011;64562;55.662;37.300;2022-12-16T09:40:03;4.50;;;2.90;;
75887;SDS011;64562;55.662;37.300;2022-12-16T09:42:48;4.55;;;2.65;;
75887;SDS011;64562;55.662;37.300;2022-12-16T09:45:36;4.18;;;2.75;;
75887;SDS011;64562;55.662;37.300;2022-12-16T09:48:23;4.35;;;2.92;;
75887;SDS011;64562;55.662;37.300;2022-12-16T09:51:09;4.50;;;2.90;;
75887;SDS011;64562;55.662;37.300;2022-12-16T09:53:54;5.15;;;2.63;;
75887;SDS011;64562;55.662;37.300;2022-12-16T09:56:40;4.05;;;2.85;;
75887;SDS011;64562;55.662;37.300;2022-12-16T09:59:26;4.07;;;2.70;;
75887;SDS011;64562;55.662;37.300;2022-12-16T10:02:11;4.38;;;3.13;;
75887;SDS011;64562;55.662;37.300;2022-12-16T10:04:56;3.75;;;2.60;;
75887;SDS011;64562;55.662;37.300;2022-12-16T10:07:41;5.40;;;3.20;;
75887;SDS011;64562;55.662;37.300;2022-12-16T10:13:14;4.68;;;2.45;;
75887;SDS011;64562;55.662;37.300;2022-12-16T10:16:02;6.82;;;3.30;;
75887;SDS011;64562;55.662;37.300;2022-12-16T10:18:49;4.30;;;2.88;;
75887;SDS011;64562;55.662;37.300;2022-12-16T10:21:36;5.35;;;2.80;;
75887;SDS011;64562;55.662;37.300;2022-12-16T10:24:25;4.10;;;2.60;;
75887;SDS011;64562;55.662;37.300;2022-12-16T10:27:12;3.85;;;2.85;;
75887;SDS011;64562;55.662;37.300;2022-12-16T10:30:00;3.58;;;2.60;;
75887;SDS011;64562;55.662;37.300;2022-12-16T10:32:46;4.38;;;2.67;;
75887;SDS011;64562;55.662;37.300;2022-12-16T10:35:32;5.30;;;3.10;;
75887;SDS011;64562;55.662;37.300;2022-12-16T10:38:19;12.10;;;2.95;;
75887;SDS011;64562;55.662;37.300;2022-12-16T10:41:04;3.33;;;2.22;;
75887;SDS011;64562;55.662;37.300;2022-12-16T10:43:48;4.32;;;2.72;;
75887;SDS011;64562;55.662;37.300;2022-12-16T10:46:33;4.18;;;2.70;;
75887;SDS011;64562;55.662;37.300;2022-12-16T10:49:18;5.30;;;2.85;;
75887;SDS011;64562;55.662;37.300;2022-12-16T10:52:02;3.42;;;2.40;;
75887;SDS011;64562;55.662;37.300;2022-12-16T10:54:48;3.47;;;2.30;;
75887;SDS011;64562;55.662;37.300;2022-12-16T10:57:36;5.47;;;3.30;;
75887;SDS011;64562;55.662;37.300;2022-12-16T11:00:37;4.35;;;2.70;;
75887;SDS011;64562;55.662;37.300;2022-12-16T11:03:23;3.78;;;2.67;;
75887;SDS011;64562;55.662;37.300;2022-12-16T11:06:07;4.38;;;2.85;;
75887;SDS011;64562;55.662;37.300;2022-12-16T11:08:52;3.58;;;2.30;;
75887;SDS011;64562;55.662;37.300;2022-12-16T11:11:36;4.82;;;2.47;;
75887;SDS011;64562;55.662;37.300;2022-12-16T11:14:21;4.55;;;2.53;;
75887;SDS011;64562;55.662;37.300;2022-12-16T11:17:15;7.97;;;2.92;;
75887;SDS011;64562;55.662;37.300;2022-12-16T11:20:10;3.85;;;2.45;;
75887;SDS011;64562;55.662;37.300;2022-12-16T11:23:10;5.88;;;2.97;;
75887;SDS011;64562;55.662;37.300;2022-12-16T11:26:06;5.43;;;2.80;;
75887;SDS011;64562;55.662;37.300;2022-12-16T11:29:02;4.38;;;2.72;;
75887;SDS011;64562;55.662;37.300;2022-12-16T11:31:47;7.00;;;2.72;;
75887;SDS011;64562;55.662;37.300;2022-12-16T11:34:33;3.90;;;2.67;;
75887;SDS011;64562;55.662;37.300;2022-12-16T11:37:18;4.70;;;2.70;;
75887;SDS011;64562;55.662;37.300;2022-12-16T11:40:03;3.60;;;2.95;;
75887;SDS011;64562;55.662;37.300;2022-12-16T11:42:47;5.28;;;2.88;;
75887;SDS011;64562;55.662;37.300;2022-12-16T11:45:31;4.57;;;2.40;;
75887;SDS011;64562;55.662;37.300;2022-12-16T11:48:20;3.95;;;2.70;;
75887;SDS011;64562;55.662;37.300;2022-12-16T11:51:07;3.60;;;2.72;;
75887;SDS011;64562;55.662;37.300;2022-12-16T11:53:57;3.45;;;2.92;;
75887;SDS011;64562;55.662;37.300;2022-12-16T11:56:42;3.65;;;2.45;;
75887;SDS011;64562;55.662;37.300;2022-12-16T11:59:27;3.95;;;2.60;;
75887;SDS011;64562;55.662;37.300;2022-12-16T12:02:15;3.40;;;2.30;;
75887;SDS011;64562;55.662;37.300;2022-12-16T12:05:00;4.03;;;2.60;;
75887;SDS011;64562;55.662;37.300;2022-12-16T12:07:46;4.75;;;2.67;;
75887;SDS011;64562;55.662;37.300;2022-12-16T12:10:44;3.53;;;2.75;;
75887;SDS011;64562;55.662;37.300;2022-12-16T12:13:42;3.75;;;2.70;;
75887;SDS011;64562;55.662;37.300;2022-12-16T12:16:30;4.22;;;2.70;;
75887;SDS011;64562;55.662;37.300;2022-12-16T12:19:19;3.67;;;2.55;;
75887;SDS011;64562;55.662;37.300;2022-12-16T12:22:06;3.83;;;2.53;;
75887;SDS011;64562;55.662;37.300;2022-12-16T12:24:55;3.58;;;2.22;;
75887;SDS011;64562;55.662;37.300;2022-12-16T12:27:43;3.72;;;2.42;;
75887;SDS011;64562;55.662;37.300;2022-12-16T12:30:32;3.65;;;2.50;;
75887;SDS011;64562;55.662;37.300;2022-12-16T12:33:23;4.18;;;2.63;;
75887;SDS011;64562;55.662;37.300;2022-12-16T12:38:56;4.47;;;2.47;;
75887;SDS011;64562;55.662;37.300;2022-12-16T12:41:52;4.35;;;2.58;;
75887;SDS011;64562;55.662;37.300;2022-12-16T12:44:42;4.53;;;2.70;;
75887;SDS011;64562;55.662;37.300;2022-12-16T12:47:30;3.60;;;2.38;;
75887;SDS011;64562;55.662;37.300;2022-12-16T12:50:16;4.72;;;2.42;;
75887;SDS011;64562;55.662;37.300;2022-12-16T12:53:10;4.40;;;2.85;;
75887;SDS011;64562;55.662;37.300;2022-12-16T12:56:01;5.47;;;2.22;;
75887;SDS011;64562;55.662;37.300;2022-12-16T12:58:46;4.63;;;2.83;;
75887;SDS011;64562;55.662;37.300;2022-12-16T13:01:33;4.15;;;2.85;;
75887;SDS011;64562;55.662;37.300;2022-12-16T13:04:18;3.90;;;2.40;;
75887;SDS011;64562;55.662;37.300;2022-12-16T13:07:02;4.13;;;2.88;;
75887;SDS011;64562;55.662;37.300;2022-12-16T13:09:53;3.75;;;2.58;;
75887;SDS011;64562;55.662;37.300;2022-12-16T13:13:18;4.40;;;2.60;;
75887;SDS011;64562;55.662;37.300;2022-12-16T13:16:04;4.60;;;2.85;;
75887;SDS011;64562;55.662;37.300;2022-12-16T13:18:58;5.40;;;3.30;;
75887;SDS011;64562;55.662;37.300;2022-12-16T13:22:01;3.42;;;2.42;;
75887;SDS011;64562;55.662;37.300;2022-12-16T13:24:47;4.18;;;2.58;;
75887;SDS011;64562;55.662;37.300;2022-12-16T13:27:44;3.35;;;2.53;;
75887;SDS011;64562;55.662;37.300;2022-12-16T13:30:29;3.92;;;2.55;;
75887;SDS011;64562;55.662;37.300;2022-12-16T13:33:24;4.78;;;2.60;;
75887;SDS011;64562;55.662;37.300;2022-12-16T13:36:11;5.20;;;2.80;;
75887;SDS011;64562;55.662;37.300;2022-12-16T13:38:57;3.67;;;2.38;;
75887;SDS011;64562;55.662;37.300;2022-12-16T13:41:49;4.25;;;2.55;;
75887;SDS011;64562;55.662;37.300;2022-12-16T13:44:53;3.90;;;2.67;;
75887;SDS011;64562;55.662;37.300;2022-12-16T13:50:36;3.72;;;2.83;;
75887;SDS011;64562;55.662;37.300;2022-12-16T13:53:21;5.25;;;3.10;;
75887;SDS011;64562;55.662;37.300;2022-12-16T13:56:08;4.80;;;2.75;;
75887;SDS011;64562;55.662;37.300;2022-12-16T13:58:57;4.88;;;2.80;;
75887;SDS011;64562;55.662;37.300;2022-12-16T14:01:43;3.97;;;2.50;;
75887;SDS011;64562;55.662;37.300;2022-12-16T14:04:32;3.70;;;2.80;;
75887;SDS011;64562;55.662;37.300;2022-12-16T14:07:17;3.70;;;2.42;;
75887;SDS011;64562;55.662;37.300;2022-12-16T14:10:03;4.88;;;3.10;;
75887;SDS011;64562;55.662;37.300;2022-12-16T14:12:50;4.35;;;3.08;;
75887;SDS011;64562;55.662;37.300;2022-12-16T14:15:38;5.57;;;2.75;;
75887;SDS011;64562;55.662;37.300;2022-12-16T14:18:27;4.63;;;2.63;;
75887;SDS011;64562;55.662;37.300;2022-12-16T14:21:15;4.35;;;3.05;;
75887;SDS011;64562;55.662;37.300;2022-12-16T14:24:02;3.90;;;2.63;;
75887;SDS011;64562;55.662;37.300;2022-12-16T14:26:50;4.03;;;2.50;;
75887;SDS011;64562;55.662;37.300;2022-12-16T14:29:34;4.32;;;2.75;;
75887;SDS011;64562;55.662;37.300;2022-12-16T14:32:19;3.78;;;2.67;;
75887;SDS011;64562;55.662;37.300;2022-12-16T14:35:05;4.07;;;2.80;;
75887;SDS011;64562;55.662;37.300;2022-12-16T14:37:54;4.20;;;2.95;;
75887;SDS011;64562;55.662;37.300;2022-12-16T14:40:37;3.60;;;2.47;;
75887;SDS011;64562;55.662;37.300;2022-12-16T14:43:23;3.22;;;2.45;;
75887;SDS011;64562;55.662;37.300;2022-12-16T14:46:15;3.90;;;2.80;;
75887;SDS011;64562;55.662;37.300;2022-12-16T14:49:11;3.70;;;2.67;;
75887;SDS011;64562;55.662;37.300;2022-12-16T14:51:58;4.82;;;3.03;;
75887;SDS011;64562;55.662;37.300;2022-12-16T14:54:42;3.35;;;2.33;;
75887;SDS011;64562;55.662;37.300;2022-12-16T14:57:27;3.90;;;2.50;;
75887;SDS011;64562;55.662;37.300;2022-12-16T15:00:13;4.22;;;2.67;;
75887;SDS011;64562;55.662;37.300;2022-12-16T15:02:59;4.32;;;2.55;;
75887;SDS011;64562;55.662;37.300;2022-12-16T15:05:43;3.33;;;2.55;;
75887;SDS011;64562;55.662;37.300;2022-12-16T15:08:45;5.63;;;2.83;;
75887;SDS011;64562;55.662;37.300;2022-12-16T15:11:30;3.97;;;2.50;;
75887;SDS011;64562;55.662;37.300;2022-12-16T15:14:14;3.55;;;2.60;;
75887;SDS011;64562;55.662;37.300;2022-12-16T15:17:05;3.97;;;2.65;;
75887;SDS011;64562;55.662;37.300;2022-12-16T15:19:50;3.20;;;2.55;;
75887;SDS011;64562;55.662;37.300;2022-12-16T15:22:35;3.63;;;2.50;;
75887;SDS011;64562;55.662;37.300;2022-12-16T15:25:22;3.63;;;2.60;;
75887;SDS011;64562;55.662;37.300;2022-12-16T15:28:21;3.17;;;2.42;;
75887;SDS011;64562;55.662;37.300;2022-12-16T15:31:11;3.63;;;2.45;;
75887;SDS011;64562;55.662;37.300;2022-12-16T15:34:05;3.60;;;2.42;;
75887;SDS011;64562;55.662;37.300;2022-12-16T15:36:59;4.00;;;2.50;;
75887;SDS011;64562;55.662;37.300;2022-12-16T15:39:43;3.45;;;2.50;;
75887;SDS011;64562;55.662;37.300;2022-12-16T15:42:28;3.42;;;2.70;;
75887;SDS011;64562;55.662;37.300;2022-12-16T15:45:16;3.42;;;2.53;;
75887;SDS011;64562;55.662;37.300;2022-12-16T15:48:04;4.85;;;2.72;;
75887;SDS011;64562;55.662;37.300;2022-12-16T15:50:53;3.75;;;2.42;;
75887;SDS011;64562;55.662;37.300;2022-12-16T15:53:37;3.65;;;2.80;;
75887;SDS011;64562;55.662;37.300;2022-12-16T15:56:22;3.45;;;2.60;;
75887;SDS011;64562;55.662;37.300;2022-12-16T15:59:14;3.70;;;2.80;;
75887;SDS011;64562;55.662;37.300;2022-12-16T16:02:03;5.38;;;2.50;;
75887;SDS011;64562;55.662;37.300;2022-12-16T16:04:48;4.43;;;2.75;;
75887;SDS011;64562;55.662;37.300;2022-12-16T16:07:37;6.82;;;2.55;;
75887;SDS011;64562;55.662;37.300;2022-12-16T16:10:29;3.00;;;2.22;;
75887;SDS011;64562;55.662;37.300;2022-12-16T16:13:14;4.85;;;2.60;;
75887;SDS011;64562;55.662;37.300;2022-12-16T16:15:57;4.47;;;2.90;;